Time;durP1;ratioP1;P1;durP2;ratioP2;P2;SDS_P1;SDS_P2;PMS_P1;PMS_P2;Temp;Humidity;BMP_temperature;BMP_pressure;BME280_temperature;BME280_humidity;BME280_pressure;Samples;Min_cycle;Max_cycle;Signal;HPM_P1;HPM_P2
2023/04/22 00:00:34;;;;;;;13.20;10.00;;;;;;;5.87;62.14;99464.63;436634;1251;138146;-62
2023/04/22 00:10:40;;;;;;;24.50;12.30;;;;;;;5.66;63.04;99459.15;436792;1251;139219;-62
2023/04/22 00:20:46;;;;;;;20.10;11.70;;;;;;;5.48;63.61;99454.38;436470;1254;141115;-60
2023/04/22 00:30:52;;;;;;;22.40;14.10;;;;;;;5.31;64.42;99451.19;436551;1254;139218;-60
2023/04/22 00:40:59;;;;;;;23.80;14.90;;;;;;;5.11;65.15;99441.80;436109;1253;140140;-61
2023/04/22 00:51:05;;;;;;;22.90;14.90;;;;;;;4.93;65.70;99435.61;436414;1256;139883;-61
2023/04/22 01:01:11;;;;;;;31.80;19.30;;;;;;;4.78;65.97;99433.64;436526;1250;139971;-60
2023/04/22 01:11:17;;;;;;;23.30;17.10;;;;;;;4.65;66.75;99438.53;436648;1257;139762;-61
2023/04/22 01:21:24;;;;;;;21.60;16.10;;;;;;;4.54;67.24;99438.98;435935;1254;140454;-60
2023/04/22 01:31:30;;;;;;;27.40;18.70;;;;;;;4.42;67.77;99439.14;436720;1256;138779;-59
2023/04/22 01:41:36;;;;;;;24.80;16.30;;;;;;;4.30;68.23;99436.30;436857;1255;138670;-61
2023/04/22 01:51:42;;;;;;;26.90;16.80;;;;;;;4.19;68.90;99438.67;436923;1251;140515;-61
2023/04/22 02:01:48;;;;;;;29.40;17.90;;;;;;;4.08;69.47;99436.66;437453;1256;138878;-61
2023/04/22 02:11:54;;;;;;;31.90;19.40;;;;;;;3.92;70.10;99443.00;437006;1254;140547;-69
2023/04/22 02:22:01;;;;;;;28.10;16.60;;;;;;;3.76;70.42;99444.15;436977;1254;140349;-68
2023/04/22 02:32:06;;;;;;;29.50;18.00;;;;;;;3.69;71.35;99436.98;436688;1252;140321;-66
2023/04/22 02:42:12;;;;;;;27.70;17.50;;;;;;;3.59;71.17;99434.91;436945;1254;139697;-67
2023/04/22 02:52:18;;;;;;;39.30;19.00;;;;;;;3.45;71.78;99436.30;436443;1254;138875;-68
2023/04/22 03:02:24;;;;;;;32.40;19.20;;;;;;;3.36;72.63;99433.68;436388;1254;140217;-65
2023/04/22 03:12:30;;;;;;;33.40;20.70;;;;;;;3.28;72.64;99439.00;436678;1251;139627;-68
2023/04/22 03:22:36;;;;;;;33.80;20.90;;;;;;;3.20;73.15;99437.89;436355;1251;139842;-68
2023/04/22 03:32:41;;;;;;;28.80;17.90;;;;;;;3.16;73.56;99438.56;436693;1254;139919;-68
2023/04/22 03:42:48;;;;;;;41.40;21.30;;;;;;;3.12;73.54;99433.14;436553;1254;140023;-67
2023/04/22 03:52:54;;;;;;;29.90;18.50;;;;;;;3.25;74.04;99431.84;436546;1254;140612;-68
2023/04/22 04:03:00;;;;;;;27.40;17.60;;;;;;;3.45;73.81;99437.33;436350;1254;138720;-67
2023/04/22 04:13:06;;;;;;;34.20;17.60;;;;;;;3.75;73.44;99439.67;436448;1251;139913;-68
2023/04/22 04:23:12;;;;;;;32.80;20.10;;;;;;;4.12;73.58;99440.51;436722;1251;139742;-67
2023/04/22 04:33:18;;;;;;;37.00;20.70;;;;;;;4.52;72.79;99444.59;436609;1254;138679;-68
2023/04/22 04:43:25;;;;;;;48.30;31.50;;;;;;;5.06;72.91;99443.59;436427;1251;139991;-67
2023/04/22 04:53:31;;;;;;;31.60;22.10;;;;;;;5.75;72.35;99443.61;436065;1251;140065;-67
2023/04/22 05:03:37;;;;;;;31.90;19.90;;;;;;;6.50;71.40;99445.48;435970;1251;141027;-69
2023/04/22 05:13:44;;;;;;;31.60;20.80;;;;;;;9.36;71.01;99439.66;436175;1251;138959;-67
2023/04/22 05:23:50;;;;;;;23.90;16.40;;;;;;;19.85;60.32;99422.37;436262;1251;138829;-70
2023/04/22 05:33:55;;;;;;;35.00;18.00;;;;;;;26.98;47.64;99407.80;436183;1254;139472;-69
2023/04/22 05:44:01;;;;;;;23.00;16.30;;;;;;;31.38;39.20;99401.17;436223;1251;138680;-68
2023/04/22 05:54:08;;;;;;;20.10;15.80;;;;;;;35.36;33.50;99390.30;436323;1254;138833;-69
2023/04/22 06:04:13;;;;;;;16.30;12.50;;;;;;;38.66;29.14;99387.67;436335;1251;138705;-71
2023/04/22 06:14:20;;;;;;;13.40;11.60;;;;;;;41.15;25.90;99394.58;436197;1254;138857;-70
2023/04/22 06:24:26;;;;;;;11.60;6.30;;;;;;;43.29;22.89;99387.95;436631;1253;139401;-70
2023/04/22 06:34:32;;;;;;;7.20;5.50;;;;;;;44.42;20.41;99390.05;436366;1254;138608;-71
2023/04/22 06:44:38;;;;;;;8.00;6.30;;;;;;;45.58;18.80;99391.80;436460;1254;139555;-72
2023/04/22 06:54:44;;;;;;;7.70;5.60;;;;;;;47.04;17.48;99392.14;436174;1251;139389;-72
2023/04/22 07:04:50;;;;;;;7.00;4.90;;;;;;;48.21;16.56;99393.14;436367;1250;138604;-72
2023/04/22 07:14:56;;;;;;;3.90;3.70;;;;;;;49.35;15.54;99392.17;437250;1250;138718;-72
2023/04/22 07:25:01;;;;;;;4.90;4.30;;;;;;;49.11;14.75;99393.48;436555;1254;139194;-72
2023/04/22 07:35:09;;;;;;;4.40;4.10;;;;;;;50.00;13.89;99397.41;436237;1254;138565;-72
2023/04/22 07:45:15;;;;;;;6.20;5.00;;;;;;;50.51;13.70;99394.06;437082;1250;138201;-70
2023/04/22 07:55:19;;;;;;;;;;;;;;;51.32;13.14;99389.93;436875;1254;138650;-72
2023/04/22 08:05:25;;;;;;;4.70;4.40;;;;;;;51.16;12.51;99390.46;436157;1251;125030;-70
2023/04/22 08:15:31;;;;;;;4.90;4.10;;;;;;;49.93;12.51;99383.35;450387;1250;138255;-70
2023/04/22 08:25:37;;;;;;;7.20;3.80;;;;;;;49.74;12.33;99379.04;436899;1254;140012;-67
2023/04/22 08:35:44;;;;;;;3.60;3.10;;;;;;;41.46;13.15;99374.84;437132;1251;138327;-68
2023/04/22 08:45:50;;;;;;;5.00;3.80;;;;;;;33.13;15.15;99382.35;436791;1250;138240;-67
2023/04/22 08:55:57;;;;;;;7.30;3.70;;;;;;;28.98;16.98;99388.10;436187;1254;138333;-68
2023/04/22 09:06:02;;;;;;;;;;;;;;;27.14;18.47;99390.98;436612;1251;139510;-67
2023/04/22 09:16:09;;;;;;;5.30;4.50;;;;;;;26.32;19.20;99385.75;436641;1254;125005;-68
2023/04/22 09:26:17;;;;;;;5.40;4.00;;;;;;;25.31;20.08;99377.75;436399;1251;139604;-66
2023/04/22 09:36:26;;;;;;;5.00;4.30;;;;;;;25.35;20.37;99370.31;436670;1251;137930;-68
2023/04/22 09:46:33;;;;;;;5.10;4.20;;;;;;;24.59;20.90;99360.83;436471;1250;138199;-68
2023/04/22 09:56:46;;;;;;;8.40;4.00;;;;;;;24.05;21.62;99352.32;436769;1251;139311;-67
2023/04/22 10:06:53;;;;;;;8.50;4.90;;;;;;;23.42;21.90;99348.63;436353;1254;137999;-68
2023/04/22 10:17:02;;;;;;;4.40;3.70;;;;;;;22.35;22.86;99343.27;436316;1251;139118;-67
2023/04/22 10:27:10;;;;;;;6.90;3.80;;;;;;;22.43;23.25;99337.14;436615;1254;139008;-68
2023/04/22 10:37:17;;;;;;;;;;;;;;;21.97;23.50;99326.64;436804;1254;139148;-68
2023/04/22 10:47:31;;;;;;;5.00;4.60;;;;;;;21.52;23.80;99323.33;436911;1251;125366;-68
2023/04/22 10:57:42;;;;;;;4.30;3.80;;;;;;;21.28;24.26;99317.48;437340;1250;138133;-68
2023/04/22 11:07:49;;;;;;;6.00;4.20;;;;;;;21.65;24.64;99301.91;436852;1251;138850;-66
2023/04/22 11:17:56;;;;;;;6.40;4.00;;;;;;;21.67;24.46;99301.17;436616;1254;138679;-68
2023/04/22 11:28:02;;;;;;;8.20;4.00;;;;;;;21.58;24.68;99289.36;436640;1254;138565;-68
2023/04/22 11:38:09;;;;;;;5.90;4.20;;;;;;;21.80;24.98;99283.61;436570;1254;138555;-68
2023/04/22 11:48:16;;;;;;;3.40;3.10;;;;;;;21.37;24.77;99282.85;436804;1254;138072;-68
2023/04/22 11:58:26;;;;;;;4.20;3.10;;;;;;;21.38;25.44;99282.35;436643;1251;140398;-67
2023/04/22 12:08:35;;;;;;;3.50;3.20;;;;;;;21.64;25.48;99276.73;436764;1251;138281;-68
2023/04/22 12:18:48;;;;;;;3.30;2.40;;;;;;;21.39;25.12;99265.48;437211;1251;137993;-67
2023/04/22 12:28:55;;;;;;;8.00;4.00;;;;;;;21.41;25.53;99263.91;437015;1251;140385;-66
2023/04/22 12:39:00;;;;;;;2.70;2.40;;;;;;;21.31;25.49;99257.77;437765;1250;139356;-67
2023/04/22 12:49:06;;;;;;;3.60;2.20;;;;;;;21.15;25.59;99248.60;436823;1254;139664;-67
2023/04/22 12:59:12;;;;;;;3.40;2.50;;;;;;;20.94;25.80;99237.71;436355;1251;138444;-68
2023/04/22 13:09:18;;;;;;;3.10;2.80;;;;;;;20.64;25.90;99235.30;436786;1254;138666;-67
2023/04/22 13:19:25;;;;;;;4.10;2.20;;;;;;;20.44;26.22;99227.95;436684;1254;138810;-69
2023/04/22 13:29:31;;;;;;;3.40;2.90;;;;;;;20.31;26.73;99216.36;437043;1250;138300;-67
2023/04/22 13:39:37;;;;;;;5.20;4.70;;;;;;;20.15;27.17;99209.46;436391;1251;138754;-66
2023/04/22 13:49:43;;;;;;;3.50;2.70;;;;;;;19.97;27.42;99209.10;436364;1254;138929;-67
2023/04/22 13:59:50;;;;;;;4.60;2.80;;;;;;;19.98;27.50;99201.55;436682;1251;138477;-68
2023/04/22 14:09:56;;;;;;;4.40;2.90;;;;;;;19.89;27.73;99200.87;436341;1253;138868;-68
2023/04/22 14:20:02;;;;;;;2.20;1.90;;;;;;;19.61;27.88;99195.48;436372;1254;138941;-67
2023/04/22 14:30:10;;;;;;;3.20;2.50;;;;;;;19.42;28.29;99190.09;436457;1250;138176;-67
2023/04/22 14:40:16;;;;;;;2.90;2.50;;;;;;;19.20;28.53;99181.13;436653;1250;138679;-68
2023/04/22 14:50:22;;;;;;;3.30;2.50;;;;;;;19.06;28.55;99182.02;447273;1250;140380;-68
2023/04/22 15:00:28;;;;;;;2.30;2.10;;;;;;;18.90;28.60;99176.59;436322;1250;139341;-70
2023/04/22 15:10:34;;;;;;;3.90;3.00;;;;;;;18.77;28.61;99169.48;436400;1255;139333;-67
2023/04/22 15:20:39;;;;;;;3.60;2.50;;;;;;;18.71;28.81;99161.91;436628;1251;139372;-66
2023/04/22 15:30:47;;;;;;;11.00;2.70;;;;;;;18.57;28.79;99160.36;436945;1255;139291;-67
2023/04/22 15:40:53;;;;;;;3.30;2.70;;;;;;;18.49;29.19;99162.92;437067;1251;139163;-66
2023/04/22 15:50:58;;;;;;;2.30;2.10;;;;;;;18.40;29.08;99163.30;437210;1256;139618;-67
2023/04/22 16:01:04;;;;;;;3.20;2.40;;;;;;;18.37;29.27;99150.16;436775;1254;138006;-67
2023/04/22 16:11:24;;;;;;;4.10;2.60;;;;;;;18.26;29.41;99149.34;436333;1251;139879;-67
2023/04/22 16:21:31;;;;;;;3.40;2.20;;;;;;;18.15;29.48;99146.38;436383;1250;138678;-67
2023/04/22 16:31:37;;;;;;;2.30;1.80;;;;;;;18.02;29.95;99146.95;436474;1251;138265;-65
2023/04/22 16:41:43;;;;;;;3.70;2.20;;;;;;;17.85;30.10;99145.85;436956;1254;139581;-67
2023/04/22 16:51:50;;;;;;;3.00;2.00;;;;;;;17.72;30.46;99141.32;436892;1251;139378;-67
2023/04/22 17:01:55;;;;;;;3.70;3.00;;;;;;;18.34;29.90;99136.34;437034;1255;138284;-68
2023/04/22 17:12:02;;;;;;;5.50;3.40;;;;;;;17.81;30.33;99132.58;437360;1256;138099;-68
2023/04/22 17:22:08;;;;;;;3.20;2.60;;;;;;;17.27;31.03;99137.66;436960;1255;139667;-68
2023/04/22 17:32:13;;;;;;;3.70;3.00;;;;;;;16.85;31.73;99134.82;437062;1251;140333;-67
2023/04/22 17:42:19;;;;;;;5.60;3.00;;;;;;;16.43;32.54;99137.02;437055;1256;139670;-67
2023/04/22 17:52:26;;;;;;;3.40;2.90;;;;;;;16.05;33.23;99139.77;436951;1253;139591;-66
2023/04/22 18:02:32;;;;;;;4.90;4.50;;;;;;;15.71;33.70;99144.79;436787;1255;139024;-65
2023/04/22 18:12:38;;;;;;;47.10;7.70;;;;;;;15.41;34.28;99154.24;436924;1253;138054;-65
2023/04/22 18:22:44;;;;;;;7.20;5.10;;;;;;;15.17;34.82;99159.91;437051;1255;139446;-67
2023/04/22 18:32:50;;;;;;;6.70;4.80;;;;;;;14.81;35.37;99164.64;437041;1255;138525;-67
2023/04/22 18:42:57;;;;;;;10.20;4.20;;;;;;;14.52;35.90;99164.69;436656;1254;138563;-67
2023/04/22 18:53:02;;;;;;;8.80;6.90;;;;;;;14.16;36.61;99170.41;437155;1254;139539;-67
2023/04/22 19:03:08;;;;;;;10.10;5.60;;;;;;;14.11;36.74;99173.80;436889;1256;139519;-67
2023/04/22 19:13:17;;;;;;;12.10;6.10;;;;;;;13.96;37.56;99173.11;437477;1254;140847;-68
2023/04/22 19:23:33;;;;;;;9.30;5.80;;;;;;;13.82;38.09;99171.31;436454;1251;138711;-67
2023/04/22 19:33:39;;;;;;;7.70;5.80;;;;;;;13.67;38.52;99166.61;436617;1251;138760;-67
2023/04/22 19:43:45;;;;;;;7.20;5.90;;;;;;;13.54;39.02;99168.54;436653;1254;138400;-66
2023/04/22 19:53:54;;;;;;;11.80;6.50;;;;;;;13.50;39.37;99166.44;436855;1253;138542;-66
2023/04/22 20:04:02;;;;;;;9.10;5.60;;;;;;;13.48;39.64;99164.63;436961;1255;138469;-66
2023/04/22 20:14:09;;;;;;;8.00;6.20;;;;;;;13.37;39.84;99163.02;437505;1256;138592;-66
2023/04/22 20:24:18;;;;;;;9.70;6.80;;;;;;;13.23;40.26;99162.42;437632;1254;138179;-65
2023/04/22 20:34:25;;;;;;;10.10;6.80;;;;;;;13.06;40.67;99153.77;436900;1257;140423;-66
2023/04/22 20:44:31;;;;;;;9.40;6.40;;;;;;;12.89;41.08;99153.58;437044;1254;138668;-66
2023/04/22 20:54:37;;;;;;;9.50;6.40;;;;;;;12.79;41.61;99158.39;437208;1252;138862;-67
2023/04/22 21:04:44;;;;;;;8.50;5.70;;;;;;;12.65;41.97;99152.52;437259;1254;138089;-66
2023/04/22 21:14:50;;;;;;;8.20;6.80;;;;;;;12.49;42.69;99149.71;437053;1254;139848;-67
2023/04/22 21:24:58;;;;;;;8.70;6.00;;;;;;;12.31;43.08;99144.45;437161;1256;138282;-66
2023/04/22 21:35:04;;;;;;;8.70;7.00;;;;;;;12.17;43.56;99143.39;437474;1251;138784;-65
2023/04/22 21:45:11;;;;;;;9.70;6.90;;;;;;;12.06;43.74;99150.23;436996;1254;138943;-66
2023/04/22 21:55:17;;;;;;;9.40;6.40;;;;;;;11.89;43.92;99149.38;436874;1254;138329;-65
2023/04/22 22:05:23;;;;;;;9.40;5.90;;;;;;;11.76;44.43;99151.60;437322;1251;142163;-64
2023/04/22 22:15:29;;;;;;;8.80;5.50;;;;;;;11.58;44.72;99154.85;437029;1249;139553;-65
2023/04/22 22:25:35;;;;;;;10.40;7.10;;;;;;;11.33;45.23;99151.65;436616;1254;138761;-65
2023/04/22 22:35:40;;;;;;;9.50;7.20;;;;;;;11.03;45.97;99154.84;436757;1251;138313;-64
2023/04/22 22:45:46;;;;;;;9.50;7.20;;;;;;;10.84;46.64;99151.16;436177;1251;138643;-64
2023/04/22 22:55:52;;;;;;;9.10;6.60;;;;;;;10.68;47.14;99148.74;436271;1251;139099;-64
2023/04/22 23:05:58;;;;;;;10.30;8.50;;;;;;;10.51;47.80;99155.71;436372;1253;138956;-64
2023/04/22 23:16:05;;;;;;;9.40;7.50;;;;;;;10.27;48.33;99155.96;436424;1253;139227;-65
2023/04/22 23:26:12;;;;;;;10.30;7.40;;;;;;;10.08;48.93;99149.58;436315;1251;138649;-65
2023/04/22 23:36:20;;;;;;;10.30;6.80;;;;;;;9.93;49.63;99149.70;436808;1254;138644;-65
2023/04/22 23:46:24;;;;;;;;;;;;;;;9.77;50.12;99143.45;436432;1251;141392;-66
2023/04/22 23:56:32;;;;;;;12.40;7.90;;;;;;;9.57;50.53;99147.06;436830;1251;124922;-66
